Terminal Aerodrome Forecast
Issued by NWS

Home | Current Version | Previous Version | Graphics & Text | Print | Product List | Glossary On
Versions: 1 2 3 4 5 6 7 8 9 10 11 12 13 14 15 16 17 18
000
FTUS43 KGRB 201731
TAFRHI
TAF
KRHI 201731Z 2018/2118 10015G25KT P6SM BKN110
     FM202100 10010G20KT 6SM SHRA BR OVC017
     FM210200 10009G19KT 3SM SHRA BR OVC007
     FM210500 11007G15KT 3SM -SHRA BR OVC005
     FM210800 15006KT 6SM -SHRA BR OVC004
     FM211600 21008G15KT P6SM -SHRA OVC007=

USA.gov is the U.S. government's official web portal to all federal, state and local government web resources and services.